Time;durP1;ratioP1;P1;durP2;ratioP2;P2;SDS_P1;SDS_P2;PMS_P1;PMS_P2;Temp;Humidity;BMP_temperature;BMP_pressure;BME280_temperature;BME280_humidity;BME280_pressure;Samples;Min_cycle;Max_cycle;Signal;HPM_P1;HPM_P2
2022/03/21 00:00:25;;;;;;;39.53;28.17;;;4.80;1.00;;;;;;4974720;28;20309;-51
2022/03/21 00:02:52;;;;;;;43.40;29.83;;;4.70;1.00;;;;;;4976512;28;20236;-52
2022/03/21 00:05:19;;;;;;;40.93;28.73;;;4.70;1.00;;;;;;4976233;28;20620;-50
2022/03/21 00:07:46;;;;;;;44.37;30.53;;;4.70;1.00;;;;;;4977110;28;20304;-51
2022/03/21 00:10:13;;;;;;;44.07;30.43;;;4.70;1.00;;;;;;4977059;28;20229;-52
2022/03/21 00:12:40;;;;;;;46.37;30.27;;;4.70;99.90;;;;;;4977196;28;20231;-52
2022/03/21 00:15:09;;;;;;;43.33;29.03;;;4.70;1.00;;;;;;4974432;28;22544;-51
2022/03/21 00:17:37;;;;;;;42.80;29.37;;;4.70;1.00;;;;;;4977957;28;20288;-50
2022/03/21 00:20:04;;;;;;;39.93;29.47;;;4.70;99.90;;;;;;4977642;28;20301;-52
2022/03/21 00:22:31;;;;;;;43.13;30.10;;;4.70;99.90;;;;;;4976102;28;20306;-51
2022/03/21 00:24:58;;;;;;;41.50;28.83;;;4.70;9.20;;;;;;4978018;28;20212;-51
2022/03/21 00:27:24;;;;;;;42.67;30.80;;;4.70;1.00;;;;;;4971431;28;20260;-51
2022/03/21 00:29:51;;;;;;;43.23;29.90;;;4.70;1.00;;;;;;4976174;28;20268;-52
2022/03/21 00:32:18;;;;;;;45.47;29.37;;;4.70;1.00;;;;;;4974095;28;20213;-53
2022/03/21 00:34:45;;;;;;;46.73;29.87;;;4.70;1.00;;;;;;4978125;28;20281;-52
2022/03/21 00:37:12;;;;;;;45.53;31.03;;;4.70;1.00;;;;;;4978519;28;20636;-51
2022/03/21 00:39:40;;;;;;;46.63;29.57;;;4.70;1.00;;;;;;4974338;28;20566;-51
2022/03/21 00:42:10;;;;;;;45.50;30.07;;;4.80;99.90;;;;;;4977182;28;20351;-51
2022/03/21 00:44:37;;;;;;;47.00;30.40;;;4.50;99.90;;;;;;4975845;28;20722;-52
2022/03/21 00:47:05;;;;;;;45.20;30.60;;;4.30;88.80;;;;;;4976029;28;20309;-51
2022/03/21 00:49:32;;;;;;;43.23;29.97;;;4.30;1.00;;;;;;4971526;28;20232;-51
2022/03/21 00:51:59;;;;;;;42.23;29.23;;;4.30;1.00;;;;;;4976279;28;20658;-51
2022/03/21 00:54:25;;;;;;;46.80;31.00;;;4.40;99.90;;;;;;4977129;28;20581;-52
2022/03/21 00:56:53;;;;;;;50.97;32.03;;;4.30;1.00;;;;;;4972385;28;20278;-49
2022/03/21 00:59:20;;;;;;;43.63;29.47;;;4.30;1.00;;;;;;4975392;28;20308;-51
2022/03/21 01:01:47;;;;;;;48.17;29.90;;;4.20;99.90;;;;;;4974092;28;20242;-51
2022/03/21 01:04:14;;;;;;;46.90;30.83;;;4.30;1.00;;;;;;4978954;28;20218;-49
2022/03/21 01:06:40;;;;;;;43.67;29.87;;;4.30;1.00;;;;;;4976125;28;20260;-52
2022/03/21 01:09:09;;;;;;;45.50;30.50;;;4.10;1.00;;;;;;4977376;28;20270;-49
2022/03/21 01:11:36;;;;;;;47.33;31.53;;;4.00;1.00;;;;;;4974934;28;20293;-49
2022/03/21 01:14:03;;;;;;;49.87;31.90;;;4.00;1.00;;;;;;4976557;28;20305;-53
2022/03/21 01:16:30;;;;;;;45.73;30.20;;;4.20;99.90;;;;;;4974971;28;20257;-51
2022/03/21 01:18:57;;;;;;;50.83;31.97;;;4.30;1.00;;;;;;4974803;28;20210;-51
2022/03/21 01:21:24;;;;;;;46.43;30.53;;;4.30;99.90;;;;;;4973860;28;20691;-54
2022/03/21 01:23:51;;;;;;;45.57;31.30;;;4.30;1.00;;;;;;4976910;28;20293;-53
2022/03/21 01:26:17;;;;;;;47.47;28.83;;;4.30;99.90;;;;;;4974503;28;20368;-52
2022/03/21 01:28:44;;;;;;;43.40;30.17;;;4.30;99.90;;;;;;4973767;28;20258;-53
2022/03/21 01:31:11;;;;;;;45.47;31.07;;;4.30;99.90;;;;;;4973696;28;20641;-52
2022/03/21 01:33:38;;;;;;;43.97;30.17;;;4.30;99.90;;;;;;4977529;28;20312;-51
2022/03/21 01:36:05;;;;;;;44.63;29.63;;;4.30;34.60;;;;;;4977282;28;20332;-51
2022/03/21 01:38:33;;;;;;;46.53;30.17;;;4.20;99.90;;;;;;4978063;28;20210;-52
2022/03/21 01:41:00;;;;;;;50.70;31.17;;;4.10;1.00;;;;;;4974645;28;20301;-49
2022/03/21 01:43:27;;;;;;;45.97;31.53;;;4.00;81.80;;;;;;4976351;28;20538;-51
2022/03/21 01:45:54;;;;;;;47.33;31.40;;;4.00;1.00;;;;;;4977649;28;20637;-50
2022/03/21 01:48:20;;;;;;;44.27;30.47;;;4.10;1.00;;;;;;4976111;28;20301;-50
2022/03/21 01:50:47;;;;;;;44.40;29.17;;;4.20;1.00;;;;;;4976008;28;20217;-52
2022/03/21 01:56:00;;;;;;;45.70;30.73;;;4.20;99.90;;;;;;4976094;28;20346;-52
2022/03/21 01:58:27;;;;;;;47.70;30.33;;;4.30;99.90;;;;;;4975857;28;20385;-51
2022/03/21 02:00:53;;;;;;;40.70;28.63;;;4.30;99.90;;;;;;4974476;28;20223;-51
2022/03/21 02:03:21;;;;;;;41.00;28.73;;;4.30;1.00;;;;;;4977369;28;20291;-49
2022/03/21 02:05:48;;;;;;;48.23;30.77;;;4.20;1.00;;;;;;4974441;28;20225;-51
2022/03/21 02:08:17;;;;;;;49.83;32.00;;;4.10;1.00;;;;;;4979583;28;20207;-50
2022/03/21 02:10:46;;;;;;;49.43;31.00;;;4.10;1.00;;;;;;5006321;28;20232;-51
2022/03/21 02:13:14;;;;;;;41.27;28.67;;;4.20;99.90;;;;;;4978742;28;20217;-52
2022/03/21 02:15:41;;;;;;;45.97;29.70;;;4.00;1.00;;;;;;4977854;28;20575;-55
2022/03/21 02:18:10;;;;;;;53.00;32.23;;;3.90;1.00;;;;;;4976782;28;20214;-50
2022/03/21 02:20:40;;;;;;;45.43;29.73;;;3.80;1.00;;;;;;4976141;28;20205;-50
2022/03/21 02:23:16;;;;;;;45.67;28.43;;;3.70;99.90;;;;;;4977874;28;20212;-53
2022/03/21 02:25:44;;;;;;;47.40;31.07;;;3.60;1.00;;;;;;4976321;28;20220;-52
2022/03/21 02:28:14;;;;;;;48.77;31.13;;;3.70;1.00;;;;;;4977068;28;20210;-50
2022/03/21 02:30:49;;;;;;;45.30;29.47;;;3.90;1.00;;;;;;4972683;28;20639;-50
2022/03/21 02:33:17;;;;;;;47.00;29.30;;;4.00;1.00;;;;;;4976283;28;20287;-51
2022/03/21 02:35:46;;;;;;;44.13;29.10;;;4.00;1.00;;;;;;4975131;28;20314;-50
2022/03/21 02:38:15;;;;;;;48.90;31.17;;;4.10;1.00;;;;;;4976157;28;20216;-51
2022/03/21 02:40:42;;;;;;;44.70;29.97;;;4.10;1.00;;;;;;4973798;28;20345;-54
2022/03/21 02:43:09;;;;;;;42.30;29.17;;;4.00;6.30;;;;;;4975440;28;20301;-50
2022/03/21 02:45:36;;;;;;;44.27;28.90;;;4.10;79.00;;;;;;4974902;28;20209;-52
2022/03/21 02:48:03;;;;;;;49.13;30.00;;;4.10;1.00;;;;;;4974788;28;20220;-52
2022/03/21 02:51:01;;;;;;;44.73;29.50;;;4.20;1.00;;;;;;4971756;28;20231;-51
2022/03/21 02:53:30;;;;;;;43.90;28.63;;;4.20;99.90;;;;;;4979142;28;20323;-51
2022/03/21 02:55:57;;;;;;;43.77;29.90;;;4.20;1.00;;;;;;4973263;28;20212;-51
2022/03/21 02:58:25;;;;;;;45.47;29.97;;;4.10;1.00;;;;;;4974902;28;20234;-51
2022/03/21 03:00:51;;;;;;;42.57;29.33;;;4.10;1.00;;;;;;4972014;28;20275;-50
2022/03/21 03:03:18;;;;;;;46.93;29.57;;;4.10;1.00;;;;;;4979095;28;20697;-50
2022/03/21 03:05:45;;;;;;;43.80;30.63;;;4.10;99.90;;;;;;4980853;28;20209;-51
2022/03/21 03:08:12;;;;;;;50.17;31.57;;;3.90;1.00;;;;;;4979195;28;20318;-49
2022/03/21 03:10:38;;;;;;;50.57;29.33;;;4.00;1.00;;;;;;4980728;28;20407;-55
2022/03/21 03:13:05;;;;;;;45.30;29.50;;;4.00;1.00;;;;;;4979959;28;20320;-52
2022/03/21 03:15:32;;;;;;;44.00;30.87;;;4.10;1.00;;;;;;4975280;28;20773;-50
2022/03/21 03:18:00;;;;;;;46.93;29.47;;;4.00;1.00;;;;;;4977302;28;20290;-51
2022/03/21 03:20:27;;;;;;;46.10;29.43;;;4.10;1.00;;;;;;4979135;28;20213;-52
2022/03/21 03:22:56;;;;;;;53.07;32.23;;;4.10;99.90;;;;;;4979714;28;20246;-51
2022/03/21 03:25:23;;;;;;;47.00;30.90;;;4.10;99.90;;;;;;4977002;28;20318;-50
2022/03/21 03:27:50;;;;;;;43.80;28.00;;;4.10;99.90;;;;;;4976331;28;20309;-53
2022/03/21 03:30:17;;;;;;;48.13;30.00;;;4.10;99.90;;;;;;4977110;28;20308;-51
2022/03/21 03:32:45;;;;;;;45.57;30.00;;;4.00;1.00;;;;;;4978932;28;20212;-52
2022/03/21 03:35:12;;;;;;;52.73;31.60;;;4.10;1.00;;;;;;4977251;28;20337;-50
2022/03/21 03:37:39;;;;;;;47.33;28.97;;;4.10;1.00;;;;;;4978597;28;21159;-49
2022/03/21 03:40:06;;;;;;;44.07;29.57;;;4.10;1.00;;;;;;4978380;28;20244;-52
2022/03/21 03:42:33;;;;;;;50.30;30.23;;;4.00;1.00;;;;;;4979568;28;20723;-52
2022/03/21 03:45:00;;;;;;;43.67;29.07;;;4.00;1.00;;;;;;4977866;28;20287;-53
2022/03/21 03:47:26;;;;;;;47.67;29.00;;;4.00;99.90;;;;;;4977714;28;20302;-49
2022/03/21 03:49:53;;;;;;;48.37;30.63;;;4.00;99.90;;;;;;4974203;28;20792;-52
2022/03/21 03:52:20;;;;;;;40.30;27.50;;;4.00;99.90;;;;;;4977185;28;20280;-52
2022/03/21 03:54:47;;;;;;;40.97;28.33;;;4.00;1.00;;;;;;4976089;28;20816;-53
2022/03/21 03:57:14;;;;;;;45.50;28.27;;;4.00;1.00;;;;;;4979872;28;20360;-52
2022/03/21 03:59:41;;;;;;;49.03;28.17;;;4.00;1.00;;;;;;4974292;28;20243;-52
2022/03/21 04:02:10;;;;;;;45.60;29.60;;;4.00;1.00;;;;;;4976269;28;20547;-52
2022/03/21 04:04:37;;;;;;;45.10;29.03;;;3.90;1.00;;;;;;4978590;28;20215;-51
2022/03/21 04:07:04;;;;;;;51.67;30.83;;;3.80;1.00;;;;;;4976160;28;20343;-50
2022/03/21 04:09:31;;;;;;;46.17;28.20;;;3.80;1.00;;;;;;4980171;28;20745;-50
2022/03/21 04:11:57;;;;;;;42.50;29.73;;;3.90;1.00;;;;;;4979665;28;20289;-49
2022/03/21 04:14:24;;;;;;;46.30;30.30;;;3.70;45.60;;;;;;4978216;28;20237;-52
2022/03/21 04:16:51;;;;;;;41.07;27.97;;;3.70;31.40;;;;;;4979959;28;20647;-52
2022/03/21 04:19:18;;;;;;;48.47;29.60;;;3.40;1.00;;;;;;4979105;28;20296;-51
2022/03/21 04:21:45;;;;;;;41.63;27.83;;;3.40;1.00;;;;;;4977768;28;20526;-50
2022/03/21 04:24:11;;;;;;;46.33;29.23;;;3.50;1.00;;;;;;4978594;28;20753;-52
2022/03/21 04:26:38;;;;;;;47.97;29.83;;;3.60;1.00;;;;;;4978616;28;20284;-52
2022/03/21 04:29:05;;;;;;;51.03;29.73;;;3.60;1.00;;;;;;4980407;28;20265;-51
2022/03/21 04:31:33;;;;;;;45.50;28.77;;;3.50;1.00;;;;;;4977286;28;20767;-50
2022/03/21 04:34:00;;;;;;;43.83;28.87;;;3.60;1.00;;;;;;4980466;28;20202;-51
2022/03/21 04:36:29;;;;;;;41.80;28.57;;;3.60;1.00;;;;;;4981199;28;20755;-51
2022/03/21 04:38:56;;;;;;;43.17;27.37;;;3.60;1.00;;;;;;4980323;28;20285;-52
2022/03/21 04:41:22;;;;;;;50.60;29.13;;;3.60;1.00;;;;;;4978494;28;20291;-51
2022/03/21 04:43:49;;;;;;;43.63;28.50;;;3.60;1.00;;;;;;4979011;28;20212;-51
2022/03/21 04:46:17;;;;;;;46.90;28.00;;;3.70;1.00;;;;;;4979074;28;20205;-51
2022/03/21 04:48:44;;;;;;;46.67;29.70;;;3.70;1.00;;;;;;4979827;28;20217;-51
2022/03/21 04:51:10;;;;;;;44.27;29.43;;;3.70;1.00;;;;;;4977993;28;20309;-51
2022/03/21 04:53:38;;;;;;;43.60;28.47;;;3.50;1.00;;;;;;4981254;28;20279;-52
2022/03/21 04:56:04;;;;;;;42.97;27.47;;;3.50;1.00;;;;;;4979041;28;20263;-52
2022/03/21 04:58:31;;;;;;;42.43;28.83;;;3.50;1.00;;;;;;4980065;28;20283;-53
2022/03/21 05:00:59;;;;;;;43.50;28.30;;;3.60;1.00;;;;;;4976824;28;20346;-51
2022/03/21 05:03:26;;;;;;;41.93;28.23;;;3.60;1.00;;;;;;4977883;28;20290;-52
2022/03/21 05:05:53;;;;;;;45.10;29.10;;;3.60;1.00;;;;;;4979004;28;20248;-53
2022/03/21 05:08:21;;;;;;;44.27;29.10;;;3.60;1.00;;;;;;4983219;28;20198;-51
2022/03/21 05:10:49;;;;;;;43.60;28.30;;;3.60;1.00;;;;;;4975763;28;20706;-50
2022/03/21 05:13:15;;;;;;;44.90;27.80;;;3.60;1.00;;;;;;4977061;28;20234;-49
2022/03/21 05:15:43;;;;;;;43.83;27.40;;;3.60;8.30;;;;;;4979225;28;22299;-52
2022/03/21 05:18:10;;;;;;;40.50;27.37;;;3.60;1.00;;;;;;4976062;28;20283;-51
2022/03/21 05:20:37;;;;;;;41.33;26.77;;;3.60;1.00;;;;;;4973499;28;20230;-51
2022/03/21 05:31:21;;;;;;;47.60;28.57;;;3.30;95.80;;;;;;4976175;28;20315;-51
2022/03/21 05:36:33;;;;;;;44.90;27.77;;;3.20;99.90;;;;;;4978792;28;20318;-50
2022/03/21 05:39:00;;;;;;;42.90;28.07;;;3.20;99.90;;;;;;4977940;28;20230;-53
2022/03/21 05:41:27;;;;;;;41.27;27.30;;;3.20;99.90;;;;;;4977572;28;20237;-52
2022/03/21 05:43:54;;;;;;;45.80;28.63;;;3.20;99.90;;;;;;4979960;28;20256;-50
2022/03/21 05:46:22;;;;;;;45.23;28.03;;;3.20;99.90;;;;;;4976526;28;20324;-51
2022/03/21 05:48:59;;;;;;;43.80;28.03;;;3.00;99.90;;;;;;4977572;28;20208;-51
2022/03/21 05:51:30;;;;;;;47.20;29.17;;;3.10;99.90;;;;;;4989710;28;20738;-49
2022/03/21 05:53:59;;;;;;;44.47;26.80;;;3.10;99.90;;;;;;4978194;28;20279;-51
2022/03/21 05:56:27;;;;;;;38.07;26.50;;;3.20;99.90;;;;;;4978538;28;20337;-53
2022/03/21 05:58:55;;;;;;;42.50;27.13;;;3.30;99.90;;;;;;4976598;28;20244;-53
2022/03/21 06:01:23;;;;;;;43.47;26.70;;;3.30;99.90;;;;;;4974666;28;20280;-50
2022/03/21 06:03:52;;;;;;;43.43;26.33;;;3.40;99.90;;;;;;4976465;28;20231;-52
2022/03/21 06:06:23;;;;;;;47.07;26.57;;;3.40;99.90;;;;;;4976805;28;20319;-51
2022/03/21 06:08:51;;;;;;;39.50;25.40;;;3.40;99.90;;;;;;4976182;28;20202;-52
2022/03/21 06:11:19;;;;;;;44.37;27.70;;;3.50;99.90;;;;;;4976088;28;20279;-55
2022/03/21 06:13:47;;;;;;;48.53;28.60;;;3.40;99.90;;;;;;4975066;28;20203;-52
2022/03/21 06:16:15;;;;;;;38.40;26.10;;;3.40;99.90;;;;;;4974466;28;20205;-51
2022/03/21 06:18:42;;;;;;;38.93;27.03;;;3.40;99.90;;;;;;4974382;28;20197;-52
2022/03/21 06:21:09;;;;;;;39.10;25.97;;;3.40;99.90;;;;;;4971737;28;20290;-52
2022/03/21 06:23:37;;;;;;;43.00;26.20;;;3.50;99.90;;;;;;4976816;28;20212;-52
2022/03/21 06:26:05;;;;;;;43.30;27.20;;;3.50;99.90;;;;;;4976487;28;20237;-50
2022/03/21 06:28:33;;;;;;;41.20;26.07;;;3.60;99.90;;;;;;4978264;28;20201;-51
2022/03/21 06:31:00;;;;;;;40.50;26.13;;;3.70;99.90;;;;;;4973723;28;21844;-52
2022/03/21 06:33:29;;;;;;;43.30;27.30;;;3.70;99.90;;;;;;4975424;28;20229;-51
2022/03/21 06:35:58;;;;;;;43.93;26.60;;;3.80;99.90;;;;;;4978711;28;20237;-50
2022/03/21 06:38:25;;;;;;;45.33;25.83;;;3.90;99.90;;;;;;4978305;28;20213;-49
2022/03/21 06:40:52;;;;;;;46.73;27.17;;;4.00;99.90;;;;;;4980674;28;20242;-49
2022/03/21 06:43:20;;;;;;;45.70;27.00;;;4.10;99.90;;;;;;4980695;28;20657;-52
2022/03/21 06:45:51;;;;;;;44.97;27.30;;;4.20;99.90;;;;;;4980843;28;20210;-50
2022/03/21 06:48:19;;;;;;;40.43;26.40;;;4.40;99.90;;;;;;4977166;28;20210;-50
2022/03/21 06:50:46;;;;;;;41.13;26.47;;;4.50;99.90;;;;;;4974703;28;20246;-53
2022/03/21 06:53:17;;;;;;;41.33;25.43;;;4.70;99.90;;;;;;4978981;28;20280;-51
2022/03/21 06:55:45;;;;;;;40.83;24.23;;;4.90;99.90;;;;;;4980000;28;20317;-51
2022/03/21 06:58:13;;;;;;;43.03;25.67;;;5.00;42.00;;;;;;4979485;28;20237;-51
2022/03/21 07:00:42;;;;;;;41.90;26.83;;;5.00;33.10;;;;;;4970962;28;20331;-52
2022/03/21 07:03:14;;;;;;;39.33;25.70;;;5.30;46.20;;;;;;4977603;28;20654;-50
2022/03/21 07:05:42;;;;;;;36.37;23.70;;;5.40;1.00;;;;;;4977598;28;20216;-52
2022/03/21 07:08:08;;;;;;;39.10;24.97;;;5.60;1.00;;;;;;4976492;28;20232;-50
2022/03/21 07:10:40;;;;;;;39.30;25.87;;;5.80;1.00;;;;;;4975561;28;20318;-52
2022/03/21 07:13:07;;;;;;;38.10;24.77;;;6.00;1.00;;;;;;4977702;28;20265;-52
2022/03/21 07:15:34;;;;;;;37.87;24.03;;;6.20;1.00;;;;;;4975433;28;20623;-52
2022/03/21 07:18:01;;;;;;;32.53;22.87;;;6.40;1.00;;;;;;4975762;28;20212;-52
2022/03/21 07:20:28;;;;;;;39.63;24.27;;;6.60;1.00;;;;;;4980868;28;20258;-53
2022/03/21 07:22:57;;;;;;;38.23;24.87;;;6.90;1.00;;;;;;4981050;28;20204;-52
2022/03/21 07:25:24;;;;;;;36.97;23.57;;;7.00;1.00;;;;;;4980923;28;20285;-50
2022/03/21 07:27:52;;;;;;;34.37;21.07;;;7.20;1.00;;;;;;4981541;28;20239;-49
2022/03/21 07:30:19;;;;;;;33.17;21.83;;;7.30;1.00;;;;;;4982372;28;20275;-51
2022/03/21 07:32:46;;;;;;;31.37;21.87;;;7.40;1.00;;;;;;4979871;28;20724;-52
2022/03/21 07:35:13;;;;;;;37.27;22.93;;;7.60;1.00;;;;;;4980372;28;20271;-53
2022/03/21 07:37:49;;;;;;;29.67;19.97;;;7.80;99.90;;;;;;4980563;28;20202;-50
2022/03/21 07:40:17;;;;;;;32.90;22.00;;;7.90;1.00;;;;;;4980249;28;20245;-51
2022/03/21 07:42:45;;;;;;;29.27;19.53;;;8.00;1.00;;;;;;4978997;28;20241;-53
2022/03/21 07:47:59;;;;;;;31.00;18.60;;;8.00;1.00;;;;;;4978410;28;20682;-53
2022/03/21 07:50:27;;;;;;;28.50;18.57;;;8.20;1.00;;;;;;4980975;28;20278;-51
2022/03/21 07:52:56;;;;;;;33.13;19.43;;;8.30;99.90;;;;;;4983049;28;20648;-50
2022/03/21 07:55:24;;;;;;;30.27;19.27;;;8.40;99.90;;;;;;4980494;28;20279;-49
2022/03/21 07:57:51;;;;;;;28.30;19.03;;;8.40;99.90;;;;;;4981523;28;20297;-50
2022/03/21 08:00:18;;;;;;;28.93;19.50;;;8.60;1.00;;;;;;4978712;28;20341;-51
2022/03/21 08:02:46;;;;;;;32.43;18.90;;;8.90;1.00;;;;;;4980726;28;20344;-51
2022/03/21 08:05:13;;;;;;;29.93;20.97;;;8.90;99.90;;;;;;4979712;28;20210;-52
2022/03/21 08:07:41;;;;;;;31.97;19.50;;;9.10;31.20;;;;;;4979752;28;20767;-50
2022/03/21 08:10:08;;;;;;;29.63;18.83;;;9.30;1.00;;;;;;4981200;28;20220;-51
2022/03/21 08:12:38;;;;;;;29.57;19.33;;;9.50;1.00;;;;;;4979776;28;20261;-52
2022/03/21 08:15:06;;;;;;;28.30;18.57;;;9.80;1.00;;;;;;4980133;28;20206;-51
2022/03/21 08:17:46;;;;;;;27.93;19.87;;;9.80;1.00;;;;;;4977589;28;20206;-50
2022/03/21 08:20:13;;;;;;;25.97;18.37;;;9.80;1.00;;;;;;4974711;28;20208;-52
2022/03/21 08:22:40;;;;;;;26.33;17.93;;;10.10;43.40;;;;;;4980122;28;20673;-51
2022/03/21 08:25:07;;;;;;;25.57;16.67;;;10.40;99.90;;;;;;4971831;28;20763;-50
2022/03/21 08:27:35;;;;;;;26.60;18.13;;;10.50;99.90;;;;;;4975010;28;20678;-50
2022/03/21 08:30:03;;;;;;;24.47;17.37;;;10.90;1.00;;;;;;4976771;28;20256;-51
2022/03/21 08:32:29;;;;;;;23.63;16.73;;;11.00;1.00;;;;;;4971703;28;20219;-50
2022/03/21 08:34:56;;;;;;;22.93;15.30;;;11.40;1.00;;;;;;4970456;28;20293;-49
2022/03/21 08:37:25;;;;;;;23.77;15.80;;;11.40;99.90;;;;;;4974741;28;20236;-53
2022/03/21 08:39:52;;;;;;;22.93;15.80;;;11.20;1.00;;;;;;4975260;28;20659;-52
2022/03/21 08:42:18;;;;;;;20.57;16.37;;;11.90;1.00;;;;;;4978800;28;20646;-51
2022/03/21 08:44:45;;;;;;;24.33;16.60;;;12.30;99.90;;;;;;4978267;28;20210;-53
2022/03/21 08:47:12;;;;;;;22.50;15.37;;;12.30;1.00;;;;;;4978051;28;20605;-50
2022/03/21 08:49:39;;;;;;;22.50;16.13;;;12.40;1.00;;;;;;4977574;28;20292;-51
2022/03/21 08:52:08;;;;;;;19.43;15.27;;;12.30;1.00;;;;;;4976830;28;20658;-50
2022/03/21 08:54:36;;;;;;;20.73;14.60;;;12.30;1.00;;;;;;4976230;28;20809;-49
2022/03/21 08:57:04;;;;;;;23.73;15.33;;;12.40;1.00;;;;;;4978044;28;20205;-52
2022/03/21 08:59:33;;;;;;;24.90;15.90;;;12.40;1.00;;;;;;4976406;28;20357;-53
2022/03/21 09:02:00;;;;;;;22.37;16.60;;;12.40;99.90;;;;;;4973356;28;20210;-53
2022/03/21 09:04:27;;;;;;;28.43;16.47;;;12.80;1.00;;;;;;4976943;28;20291;-52
2022/03/21 09:06:54;;;;;;;20.80;15.27;;;12.90;1.00;;;;;;4974857;28;20240;-51
2022/03/21 09:09:21;;;;;;;29.77;15.93;;;13.20;1.00;;;;;;4974507;28;20242;-55
2022/03/21 09:11:53;;;;;;;23.37;14.77;;;13.10;1.00;;;;;;4974461;28;20229;-54
2022/03/21 09:14:20;;;;;;;24.77;15.47;;;13.30;1.00;;;;;;4975077;28;20193;-53
2022/03/21 09:16:49;;;;;;;19.83;15.03;;;13.60;99.90;;;;;;4972151;28;20195;-54
2022/03/21 09:19:16;;;;;;;18.30;13.73;;;13.90;1.00;;;;;;4975943;28;20348;-53
2022/03/21 09:21:43;;;;;;;19.50;14.40;;;14.30;99.90;;;;;;4966605;28;20303;-54
2022/03/21 09:24:10;;;;;;;21.23;13.63;;;14.60;1.00;;;;;;4974351;28;20213;-54
2022/03/21 09:26:37;;;;;;;21.83;14.60;;;14.50;99.90;;;;;;4971920;28;20698;-51
2022/03/21 09:29:09;;;;;;;17.80;13.07;;;14.60;47.00;;;;;;4974536;28;20292;-51
2022/03/21 09:31:38;;;;;;;18.17;12.50;;;15.00;1.00;;;;;;4974322;28;20281;-53
2022/03/21 09:34:07;;;;;;;17.00;13.70;;;14.80;24.90;;;;;;4975344;28;20695;-51
2022/03/21 09:36:35;;;;;;;18.90;12.97;;;14.10;99.90;;;;;;4976648;28;20262;-54
2022/03/21 09:39:03;;;;;;;19.20;11.40;;;14.80;10.80;;;;;;4976841;28;20275;-52
2022/03/21 09:41:32;;;;;;;19.87;11.77;;;14.90;1.00;;;;;;4974823;28;20619;-52
2022/03/21 09:44:01;;;;;;;18.17;12.30;;;14.70;1.00;;;;;;4972049;28;20317;-53
2022/03/21 09:46:28;;;;;;;15.43;10.93;;;15.40;1.00;;;;;;4975862;28;20215;-53
2022/03/21 09:48:56;;;;;;;19.23;11.33;;;15.60;1.00;;;;;;4973952;28;20233;-52
2022/03/21 09:51:28;;;;;;;20.57;10.53;;;15.50;1.00;;;;;;4973961;28;20212;-52
2022/03/21 09:53:57;;;;;;;13.07;10.37;;;15.50;1.00;;;;;;4973977;28;20218;-51
2022/03/21 09:56:25;;;;;;;13.40;9.57;;;15.20;1.00;;;;;;4975081;28;20289;-54
2022/03/21 09:59:01;;;;;;;17.80;10.40;;;15.40;1.00;;;;;;4973967;28;20327;-52
2022/03/21 10:01:29;;;;;;;16.83;11.37;;;15.60;1.00;;;;;;4971374;28;20218;-52
2022/03/21 10:03:57;;;;;;;17.63;11.93;;;15.70;1.00;;;;;;4974878;28;20229;-52
2022/03/21 10:06:32;;;;;;;18.70;9.57;;;15.70;1.00;;;;;;4976159;28;20804;-53
2022/03/21 10:09:17;;;;;;;18.37;11.07;;;15.70;99.90;;;;;;4974881;28;20574;-53
2022/03/21 10:12:11;;;;;;;17.67;11.17;;;15.60;1.00;;;;;;4974543;28;20276;-53
2022/03/21 10:14:39;;;;;;;17.10;11.10;;;15.60;1.00;;;;;;4973251;28;20236;-52
2022/03/21 10:17:07;;;;;;;15.33;10.70;;;15.80;99.90;;;;;;4975804;28;20208;-53
2022/03/21 10:19:47;;;;;;;13.30;10.03;;;16.00;99.90;;;;;;4989314;28;20207;-53
2022/03/21 10:22:19;;;;;;;18.00;11.47;;;16.20;99.90;;;;;;4977256;28;20251;-54
2022/03/21 10:24:48;;;;;;;17.67;11.87;;;16.20;99.90;;;;;;4978040;28;20200;-53
2022/03/21 10:27:32;;;;;;;16.27;10.80;;;16.10;99.90;;;;;;4976761;28;20360;-53
2022/03/21 10:30:03;;;;;;;19.87;11.67;;;16.10;99.90;;;;;;4993593;28;20211;-53
2022/03/21 10:32:44;;;;;;;12.90;9.33;;;16.30;99.90;;;;;;4976766;28;20217;-53
2022/03/21 10:35:22;;;;;;;18.50;11.33;;;16.30;99.90;;;;;;4976882;28;20296;-53
2022/03/21 10:37:54;;;;;;;15.87;11.93;;;16.10;99.90;;;;;;4977894;28;21094;-54
2022/03/21 10:40:41;;;;;;;14.87;11.07;;;15.90;99.90;;;;;;4977702;28;20298;-53
2022/03/21 10:43:10;;;;;;;18.60;12.07;;;15.80;99.90;;;;;;4979919;28;20618;-53
2022/03/21 10:45:42;;;;;;;15.67;10.67;;;16.00;99.90;;;;;;4979328;28;20235;-52
2022/03/21 10:48:15;;;;;;;19.23;11.80;;;16.00;99.90;;;;;;4976166;28;20688;-54
2022/03/21 10:50:46;;;;;;;18.03;11.30;;;16.40;99.90;;;;;;4976928;28;20216;-54
2022/03/21 10:53:13;;;;;;;16.23;12.00;;;16.40;99.90;;;;;;4979776;28;20230;-52
2022/03/21 10:55:46;;;;;;;23.97;12.53;;;16.00;99.90;;;;;;4978402;28;20252;-52
2022/03/21 10:58:16;;;;;;;18.53;12.40;;;15.80;99.90;;;;;;4973521;28;20203;-53
2022/03/21 11:00:43;;;;;;;14.97;11.87;;;15.80;99.90;;;;;;4975338;28;20299;-53
2022/03/21 11:03:18;;;;;;;18.10;10.73;;;16.20;99.90;;;;;;4977924;28;20283;-54
2022/03/21 11:05:46;;;;;;;21.13;12.50;;;16.70;99.90;;;;;;4975745;28;20202;-53
2022/03/21 11:08:16;;;;;;;16.03;11.23;;;16.80;99.90;;;;;;4979184;28;20211;-52
2022/03/21 11:10:44;;;;;;;19.73;12.00;;;16.70;99.90;;;;;;4976134;28;20290;-52
2022/03/21 11:13:12;;;;;;;18.87;12.47;;;16.80;99.90;;;;;;4971193;28;20227;-54
2022/03/21 11:15:42;;;;;;;16.80;12.80;;;16.30;99.90;;;;;;4977534;28;20288;-54
2022/03/21 11:18:11;;;;;;;17.03;11.93;;;16.40;99.90;;;;;;4975586;28;20230;-55
2022/03/21 11:20:38;;;;;;;16.93;12.37;;;16.90;99.90;;;;;;4976755;28;20316;-53
2022/03/21 11:23:05;;;;;;;14.73;10.50;;;17.20;99.90;;;;;;4974851;28;20217;-54
2022/03/21 11:25:40;;;;;;;16.20;12.33;;;17.20;99.90;;;;;;4976501;28;20211;-55
2022/03/21 11:28:30;;;;;;;17.07;12.07;;;17.20;99.90;;;;;;4976073;28;20214;-55
2022/03/21 11:31:05;;;;;;;20.83;12.70;;;17.40;99.90;;;;;;4975011;28;20281;-54
2022/03/21 11:34:00;;;;;;;16.23;11.77;;;17.20;99.90;;;;;;4973468;28;20222;-59
2022/03/21 11:36:30;;;;;;;19.43;14.30;;;17.50;99.90;;;;;;4975286;28;20609;-54
2022/03/21 11:39:00;;;;;;;19.30;13.47;;;18.00;99.90;;;;;;4977197;28;20636;-54
2022/03/21 11:41:31;;;;;;;17.10;12.43;;;18.30;99.90;;;;;;4976258;28;20225;-53
2022/03/21 11:44:04;;;;;;;18.87;12.83;;;17.90;99.90;;;;;;4975006;28;20257;-54
2022/03/21 11:46:32;;;;;;;17.33;12.13;;;18.20;99.90;;;;;;4974864;28;20206;-53
2022/03/21 11:49:02;;;;;;;19.30;14.40;;;18.10;99.90;;;;;;4972317;28;20296;-59
2022/03/21 11:51:39;;;;;;;17.23;12.73;;;18.60;99.90;;;;;;4972963;28;20308;-53
2022/03/21 11:54:26;;;;;;;18.97;12.70;;;18.40;99.90;;;;;;4978144;28;20240;-52
2022/03/21 11:57:03;;;;;;;19.70;14.50;;;18.90;99.90;;;;;;4973536;28;20205;-54
2022/03/21 11:59:33;;;;;;;18.13;12.27;;;19.40;55.10;;;;;;4977139;28;20282;-53
2022/03/21 12:02:13;;;;;;;16.03;12.27;;;18.80;99.90;;;;;;4976187;28;20220;-53
2022/03/21 12:04:42;;;;;;;18.27;12.33;;;18.90;66.50;;;;;;4975425;28;20270;-54
2022/03/21 12:07:11;;;;;;;17.07;12.07;;;18.90;89.00;;;;;;4975840;28;21509;-53
2022/03/21 12:09:46;;;;;;;18.77;12.77;;;19.00;33.20;;;;;;4976908;28;20241;-54
2022/03/21 12:12:14;;;;;;;18.37;11.80;;;19.10;1.00;;;;;;4975907;28;20282;-53
2022/03/21 12:14:54;;;;;;;18.27;12.87;;;19.30;31.00;;;;;;4977707;28;20303;-60
2022/03/21 12:17:21;;;;;;;17.53;11.67;;;19.20;1.10;;;;;;4974638;28;20521;-50
2022/03/21 12:19:48;;;;;;;21.63;11.77;;;19.40;20.60;;;;;;4973614;28;20388;-55
2022/03/21 12:22:29;;;;;;;18.07;12.47;;;19.20;1.00;;;;;;4977546;28;21157;-53
2022/03/21 12:24:57;;;;;;;18.57;12.83;;;19.40;1.00;;;;;;4973714;28;20348;-54
2022/03/21 12:27:31;;;;;;;18.53;12.53;;;19.20;1.00;;;;;;4974250;28;20316;-55
2022/03/21 12:32:48;;;;;;;15.77;11.00;;;20.10;1.00;;;;;;4972559;28;20740;-54
2022/03/21 12:35:45;;;;;;;21.30;12.83;;;20.30;1.00;;;;;;4974295;28;20280;-53
2022/03/21 12:38:20;;;;;;;16.80;12.13;;;20.20;1.00;;;;;;4974044;28;20213;-53
2022/03/21 12:40:47;;;;;;;14.87;11.80;;;19.80;1.00;;;;;;4976390;28;20233;-54
2022/03/21 12:43:16;;;;;;;18.40;12.30;;;20.00;1.00;;;;;;4976085;28;20930;-54
2022/03/21 12:45:44;;;;;;;18.10;12.37;;;20.30;1.00;;;;;;4975424;28;20207;-53
2022/03/21 12:48:17;;;;;;;14.53;11.63;;;20.40;1.00;;;;;;4975340;28;20317;-55
2022/03/21 12:50:48;;;;;;;18.47;13.07;;;20.60;1.00;;;;;;4975906;28;20680;-53
2022/03/21 12:53:18;;;;;;;19.20;12.57;;;19.90;1.00;;;;;;4978762;28;20224;-55
2022/03/21 12:55:47;;;;;;;17.00;11.93;;;19.90;1.00;;;;;;4977609;28;20200;-54
2022/03/21 12:58:15;;;;;;;21.67;12.30;;;20.00;1.00;;;;;;4977951;28;20205;-52
2022/03/21 13:00:44;;;;;;;17.83;12.73;;;19.90;1.00;;;;;;4975535;28;20208;-55
2022/03/21 13:03:13;;;;;;;17.83;13.90;;;19.80;1.00;;;;;;4976532;28;20209;-54
2022/03/21 13:11:37;;;;;;;22.27;13.70;;;20.20;1.00;;;;;;4978605;28;20213;-54